Time;durP1;ratioP1;P1;durP2;ratioP2;P2;SDS_P1;SDS_P2;PMS_P1;PMS_P2;Temp;Humidity;BMP_temperature;BMP_pressure;BME280_temperature;BME280_humidity;BME280_pressure;Samples;Min_cycle;Max_cycle;Signal;HPM_P1;HPM_P2
2021/08/23 00:02:10;;;;;;;4.47;3.42;;;16.80;99.90;;;;;;5035769;28;20223;-71
2021/08/23 00:04:37;;;;;;;4.68;3.00;;;16.70;99.90;;;;;;5035971;28;20623;-71
2021/08/23 00:07:04;;;;;;;3.70;3.22;;;16.70;99.90;;;;;;5035808;28;20306;-71
2021/08/23 00:09:31;;;;;;;3.03;2.83;;;16.60;99.90;;;;;;5035909;28;20204;-71
2021/08/23 00:11:58;;;;;;;4.13;3.20;;;16.70;99.90;;;;;;5035697;28;20223;-71
2021/08/23 00:14:27;;;;;;;4.07;3.60;;;16.50;99.90;;;;;;5035862;28;20195;-71
2021/08/23 00:16:54;;;;;;;3.75;3.05;;;16.50;99.90;;;;;;5035260;28;20221;-71
2021/08/23 00:19:21;;;;;;;3.25;2.85;;;16.50;99.90;;;;;;5035460;28;20700;-71
2021/08/23 00:22:00;;;;;;;3.80;3.08;;;16.50;99.90;;;;;;5035584;28;20229;-71
2021/08/23 00:24:27;;;;;;;3.53;3.03;;;16.60;99.90;;;;;;5034513;28;20228;-71
2021/08/23 00:26:56;;;;;;;3.53;3.22;;;16.70;99.90;;;;;;5035757;28;20208;-71
2021/08/23 00:29:25;;;;;;;4.18;3.50;;;16.70;99.90;;;;;;5035510;28;20203;-71
2021/08/23 00:31:53;;;;;;;3.42;2.45;;;16.80;99.90;;;;;;5035152;28;20235;-71
2021/08/23 00:34:20;;;;;;;4.05;3.17;;;16.70;99.90;;;;;;5035143;28;20200;-71
2021/08/23 00:36:47;;;;;;;6.57;3.38;;;16.80;99.90;;;;;;5035274;28;20204;-71
2021/08/23 00:39:15;;;;;;;3.45;3.15;;;16.70;99.90;;;;;;5035331;28;20345;-71
2021/08/23 00:41:42;;;;;;;4.55;2.70;;;16.80;99.90;;;;;;5035037;28;20318;-71
2021/08/23 00:44:10;;;;;;;3.80;2.92;;;16.80;99.90;;;;;;5034907;28;20787;-71
2021/08/23 00:46:37;;;;;;;5.05;2.80;;;16.80;99.90;;;;;;5034848;28;20662;-71
2021/08/23 00:49:06;;;;;;;3.85;3.45;;;16.80;99.90;;;;;;5035180;28;20210;-71
2021/08/23 00:51:33;;;;;;;3.33;3.03;;;16.80;99.90;;;;;;5035048;28;20223;-71
2021/08/23 00:54:00;;;;;;;3.17;2.88;;;16.80;99.90;;;;;;5035033;28;20286;-71
2021/08/23 00:56:26;;;;;;;6.82;3.00;;;16.80;99.90;;;;;;5034866;28;20234;-71
2021/08/23 00:58:54;;;;;;;3.92;3.17;;;16.80;99.90;;;;;;5034710;28;20214;-71
2021/08/23 01:01:30;;;;;;;3.95;3.15;;;16.70;99.90;;;;;;5034787;28;20232;-71
2021/08/23 01:04:01;;;;;;;3.08;2.75;;;16.80;99.90;;;;;;5034909;28;20302;-71
2021/08/23 01:06:30;;;;;;;3.38;2.80;;;16.80;99.90;;;;;;5034483;28;20204;-71
2021/08/23 01:09:02;;;;;;;3.10;2.80;;;16.90;99.90;;;;;;5034521;28;20208;-71
2021/08/23 01:11:31;;;;;;;3.55;3.08;;;16.90;99.90;;;;;;5034678;28;20586;-71
2021/08/23 01:13:58;;;;;;;3.63;2.80;;;16.80;99.90;;;;;;5034668;28;20210;-71
2021/08/23 01:16:25;;;;;;;3.33;3.00;;;16.90;99.90;;;;;;5034221;28;20219;-71
2021/08/23 01:18:52;;;;;;;3.70;3.30;;;16.90;99.90;;;;;;5034542;28;20290;-71
2021/08/23 01:21:26;;;;;;;3.47;3.17;;;16.90;99.90;;;;;;5034401;28;20226;-71
2021/08/23 01:23:55;;;;;;;3.10;2.80;;;16.90;99.90;;;;;;5034221;28;20223;-71
2021/08/23 01:26:26;;;;;;;4.70;2.90;;;16.90;99.90;;;;;;5034266;28;20289;-71
2021/08/23 01:29:02;;;;;;;3.10;2.75;;;16.90;99.90;;;;;;5034266;28;20216;-71
2021/08/23 01:31:40;;;;;;;3.17;2.88;;;16.90;99.90;;;;;;5034241;28;20269;-71
2021/08/23 01:34:09;;;;;;;3.38;2.97;;;17.00;99.90;;;;;;5034128;28;20673;-71
2021/08/23 01:36:37;;;;;;;3.38;3.08;;;16.90;99.90;;;;;;5033786;28;20206;-71
2021/08/23 01:39:04;;;;;;;3.38;3.08;;;16.90;99.90;;;;;;5034173;28;20204;-71
2021/08/23 01:41:31;;;;;;;3.78;3.10;;;17.00;99.90;;;;;;5034067;28;20227;-71
2021/08/23 01:43:58;;;;;;;3.00;2.70;;;17.00;99.90;;;;;;5034115;28;20311;-71
2021/08/23 01:46:30;;;;;;;3.05;2.75;;;17.00;99.90;;;;;;5033729;28;20218;-71
2021/08/23 01:48:57;;;;;;;3.30;3.00;;;17.00;99.90;;;;;;5034112;28;20207;-71
2021/08/23 01:51:26;;;;;;;3.28;2.90;;;17.00;99.90;;;;;;5033813;28;20229;-71
2021/08/23 01:53:53;;;;;;;2.85;2.60;;;17.10;99.90;;;;;;5033669;28;20204;-71
2021/08/23 01:56:20;;;;;;;2.88;2.63;;;17.00;99.90;;;;;;5033485;28;20681;-71
2021/08/23 01:58:47;;;;;;;3.50;2.90;;;17.10;99.90;;;;;;5033809;28;20299;-71
2021/08/23 02:01:13;;;;;;;2.80;2.60;;;17.00;99.90;;;;;;5034207;28;20219;-71
2021/08/23 02:03:40;;;;;;;3.20;2.90;;;17.00;99.90;;;;;;5033771;28;20579;-71
2021/08/23 02:06:07;;;;;;;3.47;2.50;;;17.00;99.90;;;;;;5033656;28;20291;-71
2021/08/23 02:08:35;;;;;;;2.50;2.30;;;17.10;99.90;;;;;;5033575;28;20762;-71
2021/08/23 02:11:02;;;;;;;2.65;2.42;;;17.00;99.90;;;;;;5033472;28;20311;-71
2021/08/23 02:13:29;;;;;;;2.63;2.42;;;17.00;99.90;;;;;;5033714;28;20200;-71
2021/08/23 02:15:56;;;;;;;2.22;2.03;;;16.90;99.90;;;;;;5033298;28;20222;-71
2021/08/23 02:18:23;;;;;;;3.70;2.30;;;16.90;99.90;;;;;;5033650;28;20593;-71
2021/08/23 02:20:50;;;;;;;3.05;2.75;;;16.90;99.90;;;;;;5033405;28;20212;-71
2021/08/23 02:23:16;;;;;;;4.47;2.85;;;16.90;99.90;;;;;;5033354;28;20695;-71
2021/08/23 02:25:45;;;;;;;3.95;2.65;;;17.00;99.90;;;;;;5033173;28;20311;-72
2021/08/23 02:28:12;;;;;;;3.47;2.83;;;16.90;99.90;;;;;;5033562;28;20207;-71
2021/08/23 02:30:39;;;;;;;2.15;2.03;;;16.90;99.90;;;;;;5033545;28;20295;-71
2021/08/23 02:33:06;;;;;;;2.72;2.47;;;16.90;99.90;;;;;;5033540;28;20299;-71
2021/08/23 02:35:33;;;;;;;2.92;2.50;;;16.90;99.90;;;;;;5033212;28;20291;-71
2021/08/23 02:38:00;;;;;;;3.50;2.15;;;16.90;99.90;;;;;;5033332;28;20303;-71
2021/08/23 02:40:26;;;;;;;2.85;2.50;;;16.90;99.90;;;;;;5033350;28;20291;-71
2021/08/23 02:42:55;;;;;;;3.08;2.72;;;16.90;99.90;;;;;;5033400;28;20319;-71
2021/08/23 02:45:21;;;;;;;3.00;2.70;;;16.90;99.90;;;;;;5032848;28;20777;-71
2021/08/23 02:47:48;;;;;;;2.55;2.15;;;17.00;99.90;;;;;;5035550;28;20294;-71
2021/08/23 02:50:18;;;;;;;2.88;2.60;;;17.00;99.90;;;;;;5037392;28;20622;-71
2021/08/23 02:52:44;;;;;;;2.47;2.20;;;16.90;99.90;;;;;;5037196;28;20228;-71
2021/08/23 02:55:11;;;;;;;2.78;2.55;;;16.90;99.90;;;;;;5037108;28;20623;-71
2021/08/23 02:57:38;;;;;;;2.50;2.30;;;16.80;99.90;;;;;;5036966;28;20690;-71
2021/08/23 03:00:09;;;;;;;2.60;2.40;;;16.80;99.90;;;;;;5036891;28;20200;-71
2021/08/23 03:02:36;;;;;;;2.60;2.20;;;16.80;99.90;;;;;;5036900;28;20567;-71
2021/08/23 03:05:04;;;;;;;3.33;2.95;;;16.90;99.90;;;;;;5036743;28;20226;-72
2021/08/23 03:07:31;;;;;;;3.22;2.50;;;16.90;99.90;;;;;;5036741;28;20210;-71
2021/08/23 03:09:58;;;;;;;2.38;2.22;;;17.00;99.90;;;;;;5037003;28;20200;-71
2021/08/23 03:12:25;;;;;;;3.20;2.70;;;17.00;99.90;;;;;;5036646;28;20310;-71
2021/08/23 03:14:52;;;;;;;2.70;2.35;;;17.00;99.90;;;;;;5036535;28;20209;-71
2021/08/23 03:17:20;;;;;;;3.08;2.65;;;17.00;99.90;;;;;;5036806;28;20212;-71
2021/08/23 03:19:47;;;;;;;2.70;2.42;;;17.00;99.90;;;;;;5036831;28;20552;-71
2021/08/23 03:22:14;;;;;;;2.80;2.42;;;17.00;99.90;;;;;;5036422;28;20220;-71
2021/08/23 03:24:41;;;;;;;3.25;2.75;;;17.00;99.90;;;;;;5036681;28;20410;-71
2021/08/23 03:27:08;;;;;;;2.63;2.42;;;17.00;99.90;;;;;;5036431;28;20700;-71
2021/08/23 03:29:35;;;;;;;4.15;2.63;;;17.10;99.90;;;;;;5036617;28;20200;-71
2021/08/23 03:32:02;;;;;;;3.03;2.75;;;17.00;99.90;;;;;;5036442;28;20787;-71
2021/08/23 03:34:30;;;;;;;2.90;2.45;;;17.00;99.90;;;;;;5036555;28;20226;-71
2021/08/23 03:36:57;;;;;;;3.17;2.70;;;17.00;99.90;;;;;;5036151;28;20624;-71
2021/08/23 03:39:24;;;;;;;2.47;2.28;;;17.00;99.90;;;;;;5036449;28;20211;-71
2021/08/23 03:41:51;;;;;;;2.65;2.45;;;17.00;99.90;;;;;;5036199;28;20232;-71
2021/08/23 03:44:17;;;;;;;2.22;2.05;;;17.10;99.90;;;;;;5036324;28;20200;-71
2021/08/23 03:46:44;;;;;;;2.20;2.00;;;17.10;99.90;;;;;;5036081;28;20697;-71
2021/08/23 03:49:11;;;;;;;2.47;2.17;;;17.10;99.90;;;;;;5036185;28;20250;-71
2021/08/23 03:51:39;;;;;;;3.00;2.80;;;17.10;99.90;;;;;;5036221;28;20230;-71
2021/08/23 03:54:06;;;;;;;5.07;2.50;;;17.20;99.90;;;;;;5036300;28;20578;-71
2021/08/23 03:56:33;;;;;;;3.10;2.85;;;17.20;99.90;;;;;;5035987;28;20734;-71
2021/08/23 03:59:00;;;;;;;3.15;2.65;;;17.10;99.90;;;;;;5035807;28;20245;-71
2021/08/23 04:01:26;;;;;;;2.60;2.40;;;17.10;99.90;;;;;;5035957;28;20773;-71
2021/08/23 04:03:53;;;;;;;2.45;2.25;;;17.00;99.90;;;;;;5035708;28;20243;-71
2021/08/23 04:06:20;;;;;;;2.78;2.38;;;16.80;99.90;;;;;;5035496;28;20231;-71
2021/08/23 04:08:48;;;;;;;2.92;2.65;;;16.90;99.90;;;;;;5035916;28;20206;-71
2021/08/23 04:11:16;;;;;;;2.63;2.42;;;16.90;99.90;;;;;;5035751;28;20224;-71
2021/08/23 04:13:43;;;;;;;4.80;2.80;;;16.90;99.90;;;;;;5035908;28;20572;-71
2021/08/23 04:16:13;;;;;;;3.17;2.47;;;16.90;99.90;;;;;;5035277;28;20307;-71
2021/08/23 04:18:40;;;;;;;2.72;2.53;;;16.90;99.90;;;;;;5035738;28;20580;-71
2021/08/23 04:21:07;;;;;;;3.58;2.60;;;16.90;99.90;;;;;;5035606;28;20238;-71
2021/08/23 04:23:34;;;;;;;3.20;2.60;;;16.90;99.90;;;;;;5035744;28;20204;-71
2021/08/23 04:26:03;;;;;;;2.58;2.33;;;16.90;99.90;;;;;;5035134;28;20724;-71
2021/08/23 04:28:31;;;;;;;3.10;2.28;;;16.90;99.90;;;;;;5035496;28;20211;-71
2021/08/23 04:30:58;;;;;;;3.83;2.67;;;16.90;99.90;;;;;;5035195;28;20738;-71
2021/08/23 04:33:25;;;;;;;3.03;2.72;;;16.90;99.90;;;;;;5035501;28;20302;-71
2021/08/23 04:35:52;;;;;;;2.83;2.63;;;17.00;99.90;;;;;;5035297;28;20271;-71
2021/08/23 04:38:18;;;;;;;2.63;2.42;;;17.00;99.90;;;;;;5035402;28;20204;-72
2021/08/23 04:40:45;;;;;;;2.97;2.60;;;17.00;99.90;;;;;;5035244;28;20295;-71
2021/08/23 04:43:14;;;;;;;3.10;2.80;;;17.00;99.90;;;;;;5035333;28;20301;-71
2021/08/23 04:45:41;;;;;;;3.63;3.00;;;17.00;99.90;;;;;;5034722;28;20250;-71
2021/08/23 04:48:07;;;;;;;2.45;2.25;;;17.00;99.90;;;;;;5035173;28;20206;-71
2021/08/23 04:50:34;;;;;;;3.67;2.83;;;17.00;99.90;;;;;;5035119;28;20234;-71
2021/08/23 04:53:01;;;;;;;3.10;2.80;;;17.00;99.90;;;;;;5034750;28;20230;-71
2021/08/23 04:55:28;;;;;;;15.48;9.32;;;17.10;99.90;;;;;;5034940;28;20287;-71
2021/08/23 04:57:55;;;;;;;3.60;3.20;;;17.10;99.90;;;;;;5034961;28;20293;-71
2021/08/23 05:00:23;;;;;;;3.80;2.90;;;17.10;99.90;;;;;;5034703;28;20214;-71
2021/08/23 05:02:50;;;;;;;4.28;3.67;;;17.10;99.90;;;;;;5034819;28;20230;-71
2021/08/23 05:05:17;;;;;;;3.97;3.55;;;17.10;99.90;;;;;;5034536;28;20310;-71
2021/08/23 05:07:44;;;;;;;3.58;3.20;;;17.20;99.90;;;;;;5034842;28;20214;-71
2021/08/23 05:10:11;;;;;;;3.22;2.80;;;17.20;99.90;;;;;;5034033;28;20207;-71
2021/08/23 05:12:38;;;;;;;2.90;2.50;;;17.10;99.90;;;;;;5034612;28;20267;-71
2021/08/23 05:15:05;;;;;;;3.60;2.42;;;17.20;99.90;;;;;;5034480;28;20200;-71
2021/08/23 05:17:33;;;;;;;4.00;3.13;;;17.10;99.90;;;;;;5034400;28;20244;-71
2021/08/23 05:20:00;;;;;;;3.75;3.22;;;17.10;99.90;;;;;;5034624;28;20722;-71
2021/08/23 05:22:27;;;;;;;3.78;2.45;;;17.10;99.90;;;;;;5034453;28;20226;-71
2021/08/23 05:24:54;;;;;;;3.25;2.25;;;17.10;99.90;;;;;;5033951;28;20214;-70
2021/08/23 05:27:21;;;;;;;2.95;2.60;;;17.20;99.90;;;;;;5034125;28;20299;-70
2021/08/23 05:29:48;;;;;;;2.60;2.40;;;17.20;99.90;;;;;;5034368;28;20294;-71
2021/08/23 05:32:17;;;;;;;4.25;3.85;;;17.20;99.90;;;;;;5034021;28;20306;-71
2021/08/23 05:34:46;;;;;;;3.30;3.00;;;17.20;99.90;;;;;;5034273;28;20206;-71
2021/08/23 05:37:13;;;;;;;4.35;3.30;;;17.20;99.90;;;;;;5034254;28;20295;-71
2021/08/23 05:39:40;;;;;;;3.03;2.83;;;17.20;99.90;;;;;;5034201;28;20204;-71
2021/08/23 05:42:07;;;;;;;3.50;3.20;;;17.20;99.90;;;;;;5034163;28;20220;-71
2021/08/23 05:44:34;;;;;;;3.83;3.15;;;17.20;99.90;;;;;;5034147;28;20210;-71
2021/08/23 05:47:00;;;;;;;3.00;2.50;;;17.20;99.90;;;;;;5033836;28;20323;-71
2021/08/23 05:49:27;;;;;;;3.17;2.88;;;17.20;99.90;;;;;;5033953;28;20211;-71
2021/08/23 05:51:55;;;;;;;3.55;2.90;;;17.20;99.90;;;;;;5033719;28;20224;-71
2021/08/23 05:54:22;;;;;;;3.10;2.70;;;17.20;99.90;;;;;;5033692;28;20294;-71
2021/08/23 05:56:49;;;;;;;2.88;2.60;;;17.30;99.90;;;;;;5033781;28;20202;-71
2021/08/23 05:59:16;;;;;;;2.58;2.38;;;17.30;99.90;;;;;;5033904;28;20299;-71
2021/08/23 06:01:43;;;;;;;3.35;2.70;;;17.40;99.90;;;;;;5033715;28;20220;-71
2021/08/23 06:04:09;;;;;;;2.70;2.42;;;17.40;99.90;;;;;;5033604;28;20242;-71
2021/08/23 06:06:38;;;;;;;2.58;2.38;;;17.40;99.90;;;;;;5033273;28;20224;-71
2021/08/23 06:09:06;;;;;;;3.17;2.88;;;17.40;99.90;;;;;;5033780;28;20215;-71
2021/08/23 06:11:33;;;;;;;2.97;2.67;;;17.30;99.90;;;;;;5033587;28;20314;-71
2021/08/23 06:14:00;;;;;;;4.03;2.80;;;17.30;99.90;;;;;;5033766;28;20303;-71
2021/08/23 06:16:27;;;;;;;3.63;3.30;;;17.30;99.90;;;;;;5033246;28;20243;-71
2021/08/23 06:18:54;;;;;;;3.63;2.72;;;17.50;99.90;;;;;;5033627;28;20204;-71
2021/08/23 06:21:20;;;;;;;4.47;2.70;;;17.60;99.90;;;;;;5033415;28;20318;-71
2021/08/23 06:23:47;;;;;;;3.20;2.90;;;17.70;99.90;;;;;;5033584;28;20208;-71
2021/08/23 06:26:15;;;;;;;3.25;2.95;;;17.80;99.90;;;;;;5033354;28;20315;-71
2021/08/23 06:28:42;;;;;;;3.35;2.80;;;17.90;99.90;;;;;;5033569;28;20204;-71
2021/08/23 06:31:09;;;;;;;2.70;2.50;;;18.00;99.90;;;;;;5033334;28;20310;-71
2021/08/23 06:33:36;;;;;;;3.13;2.67;;;18.00;99.90;;;;;;5033540;28;20235;-71
2021/08/23 06:36:03;;;;;;;3.20;2.90;;;18.00;99.90;;;;;;5033259;28;20561;-71
2021/08/23 06:38:30;;;;;;;3.15;2.63;;;18.00;99.90;;;;;;5033410;28;20605;-71
2021/08/23 06:40:57;;;;;;;3.45;3.15;;;18.00;99.90;;;;;;5033215;28;20242;-71
2021/08/23 06:43:26;;;;;;;4.05;3.10;;;18.00;99.90;;;;;;5033466;28;20258;-71
2021/08/23 06:45:52;;;;;;;3.30;3.00;;;18.00;99.90;;;;;;5032983;28;20220;-71
2021/08/23 06:48:19;;;;;;;2.90;2.70;;;18.00;99.90;;;;;;5033269;28;20754;-71
2021/08/23 06:50:46;;;;;;;3.20;2.60;;;18.10;99.90;;;;;;5033297;28;20242;-71
2021/08/23 06:53:13;;;;;;;4.15;2.70;;;18.10;99.90;;;;;;5033064;28;20684;-71
2021/08/23 06:55:40;;;;;;;3.80;2.95;;;18.10;99.90;;;;;;5033046;28;20300;-71
2021/08/23 06:58:07;;;;;;;3.70;2.60;;;18.10;99.90;;;;;;5033237;28;20206;-71
2021/08/23 07:00:35;;;;;;;3.35;2.70;;;18.10;99.90;;;;;;5033203;28;20662;-71
2021/08/23 07:03:02;;;;;;;3.05;2.75;;;18.10;99.90;;;;;;5032875;28;20230;-71
2021/08/23 07:05:29;;;;;;;3.35;3.05;;;18.20;99.90;;;;;;5033115;28;20228;-71
2021/08/23 07:07:56;;;;;;;3.75;2.75;;;18.30;99.90;;;;;;5033062;28;20241;-71
2021/08/23 07:10:23;;;;;;;3.38;2.58;;;18.30;99.90;;;;;;5033022;28;20204;-71
2021/08/23 07:12:50;;;;;;;3.17;2.85;;;18.40;99.90;;;;;;5033169;28;20330;-71
2021/08/23 07:15:16;;;;;;;3.10;2.83;;;18.40;99.90;;;;;;5032936;28;20738;-71
2021/08/23 07:17:45;;;;;;;3.55;2.90;;;18.40;99.90;;;;;;5032770;28;20311;-71
2021/08/23 07:20:12;;;;;;;3.65;2.92;;;18.40;99.90;;;;;;5032831;28;20210;-71
2021/08/23 07:22:39;;;;;;;4.65;2.88;;;18.30;99.90;;;;;;5033077;28;20228;-71
2021/08/23 07:25:06;;;;;;;3.15;2.70;;;18.30;99.90;;;;;;5032732;28;20206;-71
2021/08/23 07:27:35;;;;;;;3.47;3.03;;;18.30;99.90;;;;;;5033052;28;20227;-71
2021/08/23 07:30:02;;;;;;;3.67;3.38;;;18.30;99.90;;;;;;5032938;28;20208;-71
2021/08/23 07:32:29;;;;;;;3.28;2.83;;;18.30;99.90;;;;;;5032741;28;20790;-71
2021/08/23 07:34:57;;;;;;;4.22;3.17;;;18.30;99.90;;;;;;5036479;28;20200;-71
2021/08/23 07:37:24;;;;;;;3.10;2.80;;;18.30;99.90;;;;;;5036729;28;20206;-71
2021/08/23 07:39:51;;;;;;;3.97;3.03;;;18.30;99.90;;;;;;5036470;28;20291;-71
2021/08/23 07:42:18;;;;;;;3.78;3.13;;;18.30;99.90;;;;;;5036446;28;20228;-71
2021/08/23 07:44:45;;;;;;;3.42;3.10;;;18.40;99.90;;;;;;5036137;28;20246;-71
2021/08/23 07:47:12;;;;;;;4.00;3.60;;;18.40;99.90;;;;;;5036373;28;20220;-71
2021/08/23 07:49:39;;;;;;;4.47;4.00;;;18.50;99.90;;;;;;5036497;28;20211;-71
2021/08/23 07:52:08;;;;;;;3.60;3.30;;;18.60;99.90;;;;;;5036358;28;20314;-71
2021/08/23 07:54:36;;;;;;;3.27;3.07;;;18.70;99.90;;;;;;5036329;28;20209;-71
2021/08/23 07:57:03;;;;;;;3.63;2.30;;;18.80;99.90;;;;;;5036062;28;20448;-71
2021/08/23 07:59:30;;;;;;;4.55;3.45;;;18.90;99.90;;;;;;5036001;28;20539;-71
2021/08/23 08:01:57;;;;;;;4.65;3.72;;;18.80;99.90;;;;;;5036468;28;20312;-71
2021/08/23 08:04:24;;;;;;;4.22;3.05;;;18.80;99.90;;;;;;5036322;28;20214;-71
2021/08/23 08:06:52;;;;;;;3.20;2.90;;;18.80;99.90;;;;;;5035714;28;20260;-71
2021/08/23 08:09:20;;;;;;;3.27;2.93;;;18.80;99.90;;;;;;5036070;28;20447;-71
2021/08/23 08:11:47;;;;;;;3.65;3.05;;;18.70;99.90;;;;;;5036190;28;20470;-71
2021/08/23 08:14:14;;;;;;;3.30;3.00;;;18.60;99.90;;;;;;5036143;28;20211;-71
2021/08/23 08:16:41;;;;;;;3.88;3.33;;;18.70;99.90;;;;;;5035786;28;20403;-71
2021/08/23 08:19:08;;;;;;;3.50;3.20;;;18.70;99.90;;;;;;5036090;28;20226;-71
2021/08/23 08:21:35;;;;;;;3.10;2.80;;;18.60;99.90;;;;;;5035632;28;20777;-71
2021/08/23 08:24:01;;;;;;;3.20;2.90;;;18.70;99.90;;;;;;5035964;28;20236;-71
2021/08/23 08:26:29;;;;;;;3.42;3.13;;;18.80;99.90;;;;;;5035267;28;20565;-71
2021/08/23 08:28:56;;;;;;;3.85;3.45;;;18.90;99.90;;;;;;5035479;28;20747;-71
2021/08/23 08:31:23;;;;;;;3.87;3.17;;;18.90;99.90;;;;;;5035576;28;20251;-71
2021/08/23 08:33:51;;;;;;;3.83;3.37;;;19.00;99.90;;;;;;5035483;28;20948;-71
2021/08/23 08:36:18;;;;;;;2.80;2.60;;;19.00;99.90;;;;;;5035283;28;20542;-71
2021/08/23 08:38:44;;;;;;;3.77;2.87;;;19.00;99.90;;;;;;5035370;28;20531;-71
2021/08/23 08:41:11;;;;;;;3.40;3.10;;;19.00;99.90;;;;;;5035322;28;20505;-71
2021/08/23 08:43:39;;;;;;;3.67;3.30;;;19.00;99.90;;;;;;5035037;28;21018;-71
2021/08/23 08:46:07;;;;;;;3.20;2.40;;;19.10;99.90;;;;;;5034165;28;20478;-71
2021/08/23 08:48:34;;;;;;;3.70;3.10;;;19.10;99.90;;;;;;5035288;28;20919;-71
2021/08/23 08:51:02;;;;;;;3.77;2.40;;;19.20;99.90;;;;;;5035164;28;20447;-71
2021/08/23 08:53:29;;;;;;;3.07;2.77;;;19.20;99.90;;;;;;5035205;28;20531;-71
2021/08/23 08:55:56;;;;;;;3.37;2.80;;;19.20;99.90;;;;;;5035054;28;20834;-71
2021/08/23 08:58:24;;;;;;;4.93;3.47;;;19.20;99.90;;;;;;5035172;28;20451;-72
2021/08/23 09:00:53;;;;;;;3.50;3.20;;;19.10;99.90;;;;;;5034896;28;20451;-71
2021/08/23 09:03:26;;;;;;;5.70;3.33;;;18.90;99.90;;;;;;5034962;28;20470;-71
2021/08/23 09:06:01;;;;;;;3.95;3.45;;;18.70;99.90;;;;;;5034642;28;20208;-71
2021/08/23 09:08:29;;;;;;;3.27;2.97;;;18.60;99.90;;;;;;5035576;28;20203;-71
2021/08/23 09:10:57;;;;;;;3.85;3.55;;;18.50;99.90;;;;;;5034791;28;20439;-71
2021/08/23 09:13:26;;;;;;;4.00;3.60;;;18.50;99.90;;;;;;5034474;28;20298;-71
2021/08/23 09:15:55;;;;;;;4.05;3.40;;;18.50;99.90;;;;;;5034310;28;20307;-71
2021/08/23 09:18:24;;;;;;;4.38;3.97;;;18.50;99.90;;;;;;5034617;28;20300;-71
2021/08/23 09:20:58;;;;;;;7.33;3.97;;;18.70;99.90;;;;;;5034545;28;20204;-71
2021/08/23 09:23:34;;;;;;;3.23;2.93;;;18.90;99.90;;;;;;5034701;28;20446;-71
2021/08/23 09:26:11;;;;;;;3.00;2.57;;;19.00;99.90;;;;;;5034038;28;21042;-71
2021/08/23 09:28:39;;;;;;;2.60;2.40;;;19.20;99.90;;;;;;5034412;28;20449;-71
2021/08/23 09:31:10;;;;;;;2.83;2.57;;;19.40;99.90;;;;;;5034371;28;20468;-71
2021/08/23 09:33:45;;;;;;;3.47;3.17;;;19.40;99.90;;;;;;5034484;28;20437;-71
2021/08/23 09:36:12;;;;;;;3.60;3.30;;;19.40;99.90;;;;;;5034194;28;20443;-71
2021/08/23 09:38:40;;;;;;;4.43;3.77;;;19.40;99.90;;;;;;5034272;28;20480;-71
2021/08/23 09:41:07;;;;;;;3.03;2.80;;;19.30;99.90;;;;;;5034292;28;20468;-71
2021/08/23 09:43:35;;;;;;;3.03;2.80;;;19.10;99.90;;;;;;5034253;28;20454;-71
2021/08/23 09:46:10;;;;;;;3.50;3.20;;;19.30;99.90;;;;;;5033721;28;20448;-72
2021/08/23 09:48:50;;;;;;;3.30;3.00;;;19.80;99.90;;;;;;5034097;28;20982;-72
2021/08/23 09:51:25;;;;;;;2.87;2.60;;;21.00;99.90;;;;;;5033822;28;20470;-72
2021/08/23 09:53:53;;;;;;;3.63;3.17;;;23.00;99.90;;;;;;5034101;28;20436;-72
2021/08/23 09:56:21;;;;;;;5.10;3.20;;;23.40;99.90;;;;;;5033605;28;20444;-72
2021/08/23 09:58:48;;;;;;;3.27;3.00;;;23.00;99.90;;;;;;5033991;28;20439;-72
2021/08/23 10:01:15;;;;;;;3.50;3.20;;;22.70;99.90;;;;;;5033846;28;20478;-72
2021/08/23 10:03:43;;;;;;;3.20;2.90;;;21.90;99.90;;;;;;5033939;28;20450;-72
2021/08/23 10:06:12;;;;;;;4.90;4.17;;;21.00;99.90;;;;;;5033624;28;20969;-72
2021/08/23 10:08:39;;;;;;;3.80;3.50;;;20.40;99.90;;;;;;5033873;28;20531;-72
2021/08/23 10:11:10;;;;;;;4.47;3.47;;;20.10;99.90;;;;;;5033752;28;20575;-72
2021/08/23 10:13:37;;;;;;;4.63;4.23;;;19.70;99.90;;;;;;5033828;28;20432;-72
2021/08/23 10:16:04;;;;;;;6.47;4.13;;;19.30;99.90;;;;;;5033132;28;20469;-72
2021/08/23 10:18:31;;;;;;;4.07;3.67;;;19.20;99.90;;;;;;5033624;28;20610;-72
2021/08/23 10:21:00;;;;;;;4.82;4.32;;;19.10;99.90;;;;;;5033997;28;20554;-72
2021/08/23 10:23:27;;;;;;;6.03;4.07;;;18.90;99.90;;;;;;5033388;28;20295;-72
2021/08/23 10:25:57;;;;;;;4.13;3.70;;;18.80;99.90;;;;;;5033286;28;20439;-72
2021/08/23 10:28:36;;;;;;;3.88;3.30;;;18.90;99.90;;;;;;5033483;28;20228;-72
2021/08/23 10:31:07;;;;;;;3.50;3.20;;;18.80;99.90;;;;;;5033525;28;20204;-72
2021/08/23 10:33:37;;;;;;;3.90;3.17;;;19.00;99.90;;;;;;5033572;28;20450;-72
2021/08/23 10:36:07;;;;;;;3.13;2.70;;;19.10;99.90;;;;;;5033376;28;20217;-72
2021/08/23 10:38:34;;;;;;;3.80;3.30;;;19.20;99.90;;;;;;5033443;28;20452;-72
2021/08/23 10:41:08;;;;;;;3.60;3.30;;;19.20;99.90;;;;;;5033418;28;20439;-72
2021/08/23 10:43:44;;;;;;;4.73;3.13;;;19.30;99.90;;;;;;5033163;28;20534;-72
2021/08/23 10:46:29;;;;;;;6.33;3.00;;;19.30;99.90;;;;;;5033267;28;20537;-71
2021/08/23 10:48:57;;;;;;;3.80;2.87;;;19.40;99.90;;;;;;5033406;28;20440;-72
2021/08/23 10:51:31;;;;;;;2.90;2.70;;;19.40;99.90;;;;;;5033456;28;20471;-72
2021/08/23 10:53:58;;;;;;;2.90;2.60;;;19.40;99.90;;;;;;5033418;28;20432;-72
2021/08/23 10:56:36;;;;;;;2.57;2.37;;;19.60;99.90;;;;;;5032958;28;20459;-72
2021/08/23 10:59:13;;;;;;;3.17;2.47;;;19.70;99.90;;;;;;5033273;28;20443;-72
2021/08/23 11:01:40;;;;;;;3.63;2.67;;;19.90;99.90;;;;;;5033013;28;20982;-72
2021/08/23 11:04:08;;;;;;;2.80;2.60;;;20.00;99.90;;;;;;5033305;28;20454;-72
2021/08/23 11:06:37;;;;;;;2.70;2.50;;;20.10;99.90;;;;;;5032800;28;20451;-72
2021/08/23 11:09:09;;;;;;;2.00;1.90;;;20.40;99.90;;;;;;5035844;28;20450;-72
2021/08/23 11:11:37;;;;;;;2.93;2.63;;;20.50;99.90;;;;;;5036977;28;20485;-72
2021/08/23 11:14:15;;;;;;;3.07;2.80;;;20.60;99.90;;;;;;5037125;28;20867;-72
2021/08/23 11:16:42;;;;;;;3.90;2.63;;;20.60;99.90;;;;;;5036551;28;20919;-72
2021/08/23 11:19:11;;;;;;;2.60;2.40;;;20.20;99.90;;;;;;5036842;28;20446;-72
2021/08/23 11:21:46;;;;;;;2.70;2.50;;;19.80;99.90;;;;;;5036857;28;20865;-72
2021/08/23 11:24:17;;;;;;;3.00;2.43;;;19.50;99.90;;;;;;5036858;28;20534;-72
2021/08/23 11:26:54;;;;;;;2.50;2.30;;;19.30;99.90;;;;;;5036517;28;20448;-72
2021/08/23 11:29:20;;;;;;;2.40;2.20;;;19.50;99.90;;;;;;5036486;28;21014;-72
2021/08/23 11:31:55;;;;;;;2.57;2.37;;;19.60;99.90;;;;;;5036421;28;20558;-72
2021/08/23 11:34:24;;;;;;;2.30;2.10;;;19.60;99.90;;;;;;5036466;28;20964;-72
2021/08/23 11:36:53;;;;;;;1.83;1.70;;;19.80;99.90;;;;;;5036505;28;20520;-72
2021/08/23 11:39:20;;;;;;;2.57;2.37;;;19.90;99.90;;;;;;5036627;28;20437;-72
2021/08/23 11:41:57;;;;;;;2.57;2.37;;;20.20;99.90;;;;;;5036418;28;20471;-72
2021/08/23 11:44:24;;;;;;;7.63;5.27;;;20.40;99.90;;;;;;5036500;28;20452;-72
2021/08/23 11:46:55;;;;;;;2.20;2.00;;;20.40;99.90;;;;;;5036192;28;20468;-72
2021/08/23 11:49:28;;;;;;;2.43;2.30;;;20.80;99.90;;;;;;5036785;28;20453;-71
2021/08/23 11:51:56;;;;;;;2.70;2.33;;;21.10;99.90;;;;;;5036418;28;20469;-71
2021/08/23 11:54:23;;;;;;;2.03;1.93;;;21.20;99.90;;;;;;5036298;28;20453;-71
2021/08/23 11:56:50;;;;;;;2.97;2.73;;;21.00;99.90;;;;;;5036231;28;20541;-72
2021/08/23 11:59:17;;;;;;;1.77;1.67;;;20.90;99.90;;;;;;5036333;28;20452;-72
2021/08/23 12:01:43;;;;;;;2.70;2.30;;;20.70;99.90;;;;;;5035977;28;20559;-71
2021/08/23 12:04:10;;;;;;;1.83;1.73;;;20.50;99.90;;;;;;5036228;28;20448;-72
2021/08/23 12:06:37;;;;;;;2.17;1.97;;;20.30;99.90;;;;;;5035876;28;20447;-72
2021/08/23 12:09:06;;;;;;;3.03;2.27;;;20.10;99.90;;;;;;5036144;28;20480;-72
2021/08/23 12:11:44;;;;;;;2.10;2.00;;;20.00;99.90;;;;;;5035943;28;20843;-71
2021/08/23 12:14:19;;;;;;;2.43;2.20;;;19.90;99.90;;;;;;5035918;28;20476;-71
2021/08/23 12:16:45;;;;;;;2.40;2.20;;;19.90;99.90;;;;;;5035357;28;20460;-72
2021/08/23 12:19:14;;;;;;;2.20;2.00;;;20.00;99.90;;;;;;5035561;28;20487;-71
2021/08/23 12:21:42;;;;;;;2.70;2.40;;;20.20;99.90;;;;;;5035744;28;21059;-71
2021/08/23 12:24:21;;;;;;;2.17;1.97;;;20.30;99.90;;;;;;5035562;28;20481;-71
2021/08/23 12:26:52;;;;;;;2.17;1.93;;;20.20;99.90;;;;;;5035861;28;20441;-72
2021/08/23 12:29:21;;;;;;;3.77;2.00;;;20.30;99.90;;;;;;5035746;28;21015;-72
2021/08/23 12:31:50;;;;;;;2.50;2.30;;;20.30;99.90;;;;;;5035508;28;20661;-72
2021/08/23 12:34:19;;;;;;;2.33;2.13;;;20.30;99.90;;;;;;5035712;28;20544;-71
2021/08/23 12:36:47;;;;;;;2.27;2.00;;;20.60;99.90;;;;;;5035679;28;20453;-72
2021/08/23 12:39:16;;;;;;;2.00;1.80;;;21.00;99.90;;;;;;5035436;28;20534;-71
2021/08/23 12:41:44;;;;;;;2.00;1.90;;;21.30;99.90;;;;;;5035345;28;20467;-72
2021/08/23 12:44:12;;;;;;;2.10;2.00;;;21.70;99.90;;;;;;5035408;28;20472;-72
2021/08/23 12:46:39;;;;;;;2.07;1.93;;;21.80;99.90;;;;;;5034855;28;20534;-71
2021/08/23 12:49:07;;;;;;;2.27;2.07;;;22.00;99.90;;;;;;5035172;28;20481;-72
2021/08/23 12:51:34;;;;;;;1.90;1.80;;;22.30;99.90;;;;;;5035012;28;20892;-72
2021/08/23 12:54:01;;;;;;;1.77;1.60;;;22.50;99.90;;;;;;5035179;28;20442;-72